createdAt,value
2023-04-20T15:15:03.628Z,76.7401
2023-04-20T15:16:06.257Z,76.8733
2023-04-20T15:17:09.074Z,77.1997
2023-04-20T15:18:11.491Z,77.7131
2023-04-20T15:19:14.122Z,77.8779
2023-04-20T15:20:16.731Z,77.1000
2023-04-20T15:21:19.362Z,76.7428
2023-04-20T15:22:21.958Z,77.6963
2023-04-20T15:23:24.606Z,78.2431
2023-04-20T15:24:27.201Z,78.3206
2023-04-20T15:25:29.856Z,77.9244
2023-04-20T15:26:32.447Z,77.4198
2023-04-20T15:27:35.101Z,76.1657
2023-04-20T15:28:37.702Z,76.5060
2023-04-20T15:29:40.346Z,76.5896
2023-04-20T15:30:42.940Z,76.7259
2023-04-20T15:31:45.654Z,76.5478
2023-04-20T15:32:48.862Z,77.1040
2023-04-20T15:33:50.824Z,76.8392
2023-04-20T15:34:53.440Z,77.2461
2023-04-20T15:35:56.059Z,77.2160
2023-04-20T15:36:58.653Z,77.0310
2023-04-20T15:38:01.304Z,76.8667
2023-04-20T15:39:03.911Z,76.6829
2023-04-20T15:40:06.550Z,76.8198
2023-04-20T15:41:09.528Z,77.2777
2023-04-20T15:42:11.773Z,77.6330
2023-04-20T15:43:14.371Z,77.6823
2023-04-20T15:44:17.412Z,76.6848
2023-04-20T15:45:19.605Z,76.5455
2023-04-20T15:46:22.356Z,77.0446
2023-04-20T15:47:24.901Z,76.8002
2023-04-20T15:48:27.558Z,77.2526
2023-04-20T15:49:30.965Z,77.6226
2023-04-20T15:50:32.728Z,78.2460
2023-04-20T15:51:35.325Z,76.3660
2023-04-20T15:52:37.997Z,75.5059
2023-04-20T15:53:40.593Z,77.0918
2023-04-20T15:54:43.185Z,77.4445
2023-04-20T15:55:45.776Z,76.0349
2023-04-20T15:56:48.414Z,74.8641
2023-04-20T15:57:51.002Z,75.6701
2023-04-20T15:58:53.641Z,76.9029
2023-04-20T15:59:56.246Z,75.4081
2023-04-20T16:00:58.895Z,74.8223
2023-04-20T16:02:01.563Z,74.7533
2023-04-20T16:03:04.210Z,74.9042
2023-04-20T16:04:06.943Z,75.0904
2023-04-20T16:05:09.730Z,75.1625
2023-04-20T16:06:11.909Z,76.5842
2023-04-20T16:07:14.557Z,77.0356
2023-04-20T16:08:17.161Z,76.6051
2023-04-20T16:09:20.797Z,76.5183
2023-04-20T16:10:22.395Z,77.0044
2023-04-20T16:11:25.010Z,76.2628
2023-04-20T16:12:27.615Z,76.6972
2023-04-20T16:13:30.245Z,76.8884
2023-04-20T16:14:32.871Z,77.6479
2023-04-20T16:15:35.517Z,77.4255
2023-04-20T16:16:38.080Z,76.9168
2023-04-20T16:17:40.749Z,76.2233
2023-04-20T16:18:43.313Z,76.0242
2023-04-20T16:19:45.952Z,76.6212
2023-04-20T16:20:48.532Z,76.3066
2023-04-20T16:21:51.167Z,76.5725
2023-04-20T16:22:53.839Z,77.9216
2023-04-20T16:23:56.391Z,76.8846
2023-04-20T16:24:58.977Z,75.9517
2023-04-20T16:26:01.636Z,77.0540
2023-04-20T16:27:04.214Z,77.5178
2023-04-20T16:28:06.857Z,77.0366
2023-04-20T16:29:09.440Z,76.2574
2023-04-20T16:30:12.076Z,75.3593
2023-04-20T16:31:14.698Z,74.4638
2023-04-20T16:32:17.573Z,75.3562
2023-04-20T16:33:19.885Z,75.3830
2023-04-20T16:34:22.519Z,74.9495
2023-04-20T16:35:25.115Z,74.9438
2023-04-20T16:36:27.751Z,74.4103
2023-04-20T17:42:15.295Z,73.1398
2023-04-20T17:43:17.920Z,73.4915
2023-04-20T17:44:20.735Z,72.9723
2023-04-20T17:45:23.153Z,73.5819
2023-04-20T17:46:25.776Z,74.4314
2023-04-20T17:47:28.430Z,74.8911
2023-04-20T17:48:30.967Z,75.2973
2023-04-20T17:49:33.618Z,74.7215
2023-04-20T17:50:36.220Z,75.3599
2023-04-20T17:51:38.845Z,75.5244
2023-04-20T17:52:41.448Z,75.4738
2023-04-20T17:53:44.316Z,75.1653
2023-04-20T17:54:46.718Z,75.5333
2023-04-20T17:55:49.329Z,75.2740
2023-04-20T17:56:51.914Z,75.5343
2023-04-20T17:57:54.558Z,75.8721
2023-04-20T17:58:57.159Z,76.3504
2023-04-20T17:59:59.796Z,76.0381
2023-04-20T18:01:02.415Z,76.6307
2023-04-20T18:02:05.189Z,76.5625
2023-04-20T18:03:07.816Z,76.6140
2023-04-20T18:04:10.991Z,76.0278
2023-04-20T18:05:12.855Z,76.1141
2023-04-20T18:06:15.501Z,76.3213
2023-04-20T18:07:18.126Z,76.1576
2023-04-20T18:08:20.738Z,76.1112
2023-04-20T18:09:23.325Z,75.1929
2023-04-20T18:10:25.966Z,75.5889
